Time;durP1;ratioP1;P1;durP2;ratioP2;P2;SDS_P1;SDS_P2;PMS_P1;PMS_P2;Temp;Humidity;BMP_temperature;BMP_pressure;BME280_temperature;BME280_humidity;BME280_pressure;Samples;Min_cycle;Max_cycle;Signal;HPM_P1;HPM_P2
2022/10/23 00:01:31;;;;;;;;;;;;;;;4.68;78.83;100286.72;5093194;28;1616;-80
2022/10/23 00:03:57;;;;;;;;;;;;;;;4.66;79.13;100289.56;5096207;28;1949;-78
2022/10/23 00:06:24;;;;;;;;;;;;;;;4.63;79.09;100281.94;5098584;28;1579;-79
2022/10/23 00:08:50;;;;;;;;;;;;;;;4.63;79.14;100284.63;5091184;28;1933;-79
2022/10/23 00:11:16;;;;;;;;;;;;;;;4.61;78.96;100285.81;5091391;28;1512;-78
2022/10/23 00:13:43;;;;;;;;;;;;;;;4.62;79.00;100280.31;5099868;28;1984;-79
2022/10/23 00:16:09;;;;;;;;;;;;;;;4.62;79.07;100279.44;5077215;28;1527;-78
2022/10/23 00:18:35;;;;;;;;;;;;;;;4.61;79.00;100281.31;5091512;28;1545;-80
2022/10/23 00:21:01;;;;;;;;;;;;;;;4.58;78.85;100268.34;5094004;28;1980;-78
2022/10/23 00:23:28;;;;;;;;;;;;;;;4.64;78.83;100280.09;5093933;28;3633;-78
2022/10/23 00:25:54;;;;;;;;;;;;;;;4.65;78.86;100276.44;5089807;28;3584;-79
2022/10/23 00:28:20;;;;;;;;;;;;;;;4.61;78.74;100275.16;5070779;28;1910;-78
2022/10/23 00:30:46;;;;;;;;;;;;;;;4.56;79.11;100267.72;5075834;28;3444;-80
2022/10/23 00:33:13;;;;;;;;;;;;;;;4.57;78.85;100279.22;5068313;28;2115;-78
2022/10/23 00:35:39;;;;;;;;;;;;;;;4.57;78.93;100277.38;5068636;28;1969;-79
2022/10/23 00:38:05;;;;;;;;;;;;;;;4.57;78.85;100274.69;5070491;28;1916;-79
2022/10/23 00:40:32;;;;;;;;;;;;;;;4.58;78.89;100273.66;5081345;28;1409;-78
2022/10/23 00:42:58;;;;;;;;;;;;;;;4.58;78.83;100273.66;5093449;28;2766;-80
2022/10/23 00:45:25;;;;;;;;;;;;;;;4.57;78.80;100269.38;5075040;28;1563;-78
2022/10/23 00:47:51;;;;;;;;;;;;;;;4.55;78.96;100263.38;5070925;28;1914;-78
2022/10/23 00:50:17;;;;;;;;;;;;;;;4.54;78.86;100265.22;5072167;28;1484;-77
2022/10/23 00:52:44;;;;;;;;;;;;;;;4.56;78.89;100267.72;5073959;28;1529;-78
2022/10/23 00:55:10;;;;;;;;;;;;;;;4.55;78.82;100274.88;5076096;28;1938;-77
2022/10/23 00:57:36;;;;;;;;;;;;;;;4.56;78.67;100275.72;5074496;28;1585;-78
2022/10/23 01:00:03;;;;;;;;;;;;;;;4.57;78.86;100273.88;5075444;28;1641;-78
2022/10/23 01:02:29;;;;;;;;;;;;;;;4.59;78.65;100278.00;5071011;28;1448;-80
2022/10/23 01:04:55;;;;;;;;;;;;;;;4.57;78.56;100280.03;5080319;28;1931;-80
2022/10/23 01:07:21;;;;;;;;;;;;;;;4.58;78.57;100273.66;5080349;28;1984;-80
2022/10/23 01:09:48;;;;;;;;;;;;;;;4.58;78.51;100265.66;5074709;28;1663;-78
2022/10/23 01:12:14;;;;;;;;;;;;;;;4.57;78.62;100277.38;5076902;28;1563;-78
2022/10/23 01:14:40;;;;;;;;;;;;;;;4.58;78.55;100263.00;5080528;28;1886;-78
2022/10/23 01:17:07;;;;;;;;;;;;;;;4.60;78.55;100266.31;5077448;28;1783;-79
2022/10/23 01:19:33;;;;;;;;;;;;;;;4.62;78.45;100263.44;5076586;28;3526;-78
2022/10/23 01:21:59;;;;;;;;;;;;;;;4.20;78.19;100185.84;5079895;28;4006;-79
2022/10/23 01:24:25;;;;;;;;;;;;;;;4.67;77.89;100272.53;5073572;28;1933;-78
2022/10/23 01:26:52;;;;;;;;;;;;;;;4.67;78.08;100269.06;5076522;28;2493;-79
2022/10/23 01:29:18;;;;;;;;;;;;;;;4.67;78.14;100271.72;5088252;28;2011;-79
2022/10/23 01:31:44;;;;;;;;;;;;;;;4.68;78.20;100270.72;5096578;28;1633;-79
2022/10/23 01:34:11;;;;;;;;;;;;;;;4.67;78.04;100275.22;5095822;28;1992;-78
2022/10/23 01:36:37;;;;;;;;;;;;;;;4.65;78.03;100274.59;5098703;28;1913;-79
2022/10/23 01:39:03;;;;;;;;;;;;;;;4.66;77.89;100262.91;5093369;28;2553;-79
2022/10/23 01:41:30;;;;;;;;;;;;;;;4.71;77.85;100260.50;5104603;28;1821;-79
2022/10/23 01:43:56;;;;;;;;;;;;;;;4.68;78.29;100258.22;5102072;28;1756;-79
2022/10/23 01:46:22;;;;;;;;;;;;;;;4.70;77.90;100256.16;5103632;28;1926;-78
2022/10/23 01:48:50;;;;;;;;;;;;;;;4.69;77.95;100264.38;5077672;28;2024;-79
2022/10/23 01:51:16;;;;;;;;;;;;;;;4.70;78.02;100247.34;5093720;28;1578;-78
2022/10/23 01:53:42;;;;;;;;;;;;;;;4.73;77.78;100262.97;5091377;28;4599;-78
2022/10/23 01:56:09;;;;;;;;;;;;;;;4.75;77.67;100253.75;5100239;28;4523;-79
2022/10/23 01:58:35;;;;;;;;;;;;;;;4.72;77.76;100251.47;5098580;28;4535;-79
2022/10/23 02:01:01;;;;;;;;;;;;;;;4.73;77.72;100258.44;5099354;28;1425;-79
2022/10/23 02:03:27;;;;;;;;;;;;;;;4.77;77.53;100261.59;5078455;28;1698;-79
2022/10/23 02:05:54;;;;;;;;;;;;;;;4.77;77.45;100261.59;5083535;28;1633;-78
2022/10/23 02:08:20;;;;;;;;;;;;;;;4.78;77.44;100261.38;5093598;28;1910;-79
2022/10/23 02:10:46;;;;;;;;;;;;;;;4.85;77.30;100261.44;5093064;28;3652;-80
2022/10/23 02:13:12;;;;;;;;;;;;;;;4.82;77.42;100253.00;5084779;28;1995;-79
2022/10/23 02:15:39;;;;;;;;;;;;;;;4.83;77.21;100249.34;5109195;28;1850;-78
2022/10/23 02:18:06;;;;;;;;;;;;;;;4.83;77.37;100249.34;5076324;28;1554;-78
2022/10/23 02:20:32;;;;;;;;;;;;;;;4.83;77.34;100246.66;5098013;28;1689;-78
2022/10/23 02:22:58;;;;;;;;;;;;;;;4.82;77.26;100240.47;5093528;28;2684;-79
2022/10/23 02:25:25;;;;;;;;;;;;;;;4.82;77.43;100243.16;5094194;27;1613;-78
2022/10/23 02:27:51;;;;;;;;;;;;;;;4.85;77.00;100236.59;5081769;28;1918;-77
2022/10/23 02:30:17;;;;;;;;;;;;;;;4.90;77.09;100245.69;5101607;28;1727;-77
2022/10/23 02:32:44;;;;;;;;;;;;;;;4.90;76.97;100236.88;5094017;28;1937;-78
2022/10/23 02:35:10;;;;;;;;;;;;;;;4.89;77.09;100244.06;5076908;28;1693;-79
2022/10/23 02:37:36;;;;;;;;;;;;;;;4.89;76.95;100244.06;5093328;28;1583;-78
2022/10/23 02:40:03;;;;;;;;;;;;;;;4.94;76.89;100236.31;5097114;28;1709;-77
2022/10/23 02:42:29;;;;;;;;;;;;;;;4.94;76.80;100251.47;5095467;28;1913;-77
2022/10/23 02:44:55;;;;;;;;;;;;;;;4.90;77.09;100242.22;5106221;28;2480;-77
2022/10/23 02:47:21;;;;;;;;;;;;;;;4.99;76.62;100244.56;5081826;28;1435;-77
2022/10/23 02:49:48;;;;;;;;;;;;;;;4.94;76.86;100243.47;5099262;28;2061;-77
2022/10/23 02:52:14;;;;;;;;;;;;;;;4.97;76.89;100243.94;5095632;28;1936;-78
2022/10/23 02:54:40;;;;;;;;;;;;;;;4.98;76.61;100239.44;5113711;28;1918;-78
2022/10/23 02:57:07;;;;;;;;;;;;;;;4.96;76.87;100225.44;5106600;28;1933;-78
2022/10/23 02:59:33;;;;;;;;;;;;;;;4.99;76.77;100230.38;5098940;28;1143;-78
2022/10/23 03:01:59;;;;;;;;;;;;;;;5.03;76.53;100245.03;5115744;28;1913;-78
2022/10/23 03:04:25;;;;;;;;;;;;;;;4.98;76.79;100242.91;5098155;28;1187;-78
2022/10/23 03:06:52;;;;;;;;;;;;;;;5.02;76.70;100246.03;5106188;27;1831;-78
2022/10/23 03:09:18;;;;;;;;;;;;;;;5.15;76.30;100245.34;5116409;28;2004;-79
2022/10/23 03:11:44;;;;;;;;;;;;;;;5.08;76.39;100239.91;5115121;27;1959;-78
2022/10/23 03:14:10;;;;;;;;;;;;;;;5.04;76.57;100244.00;5097775;28;1981;-78
2022/10/23 03:16:37;;;;;;;;;;;;;;;5.12;76.36;100248.41;5111819;28;1614;-77
2022/10/23 03:19:03;;;;;;;;;;;;;;;5.10;76.43;100251.25;5113735;28;1728;-78
2022/10/23 03:21:29;;;;;;;;;;;;;;;5.11;76.24;100258.22;5080319;28;1367;-76
2022/10/23 03:23:56;;;;;;;;;;;;;;;5.08;76.57;100260.44;5114890;28;1701;-78
2022/10/23 03:26:22;;;;;;;;;;;;;;;5.13;76.34;100253.53;5115850;28;1166;-77
2022/10/23 03:28:48;;;;;;;;;;;;;;;5.12;76.30;100256.41;5115308;28;1913;-78
2022/10/23 03:31:14;;;;;;;;;;;;;;;5.11;76.45;100252.06;5115866;28;1170;-77
2022/10/23 03:33:41;;;;;;;;;;;;;;;5.18;76.12;100256.47;5102785;28;1880;-79
2022/10/23 03:36:07;;;;;;;;;;;;;;;5.19;76.00;100255.44;5114480;28;1255;-79
2022/10/23 03:38:33;;;;;;;;;;;;;;;5.16;76.16;100263.00;5115787;28;1139;-77
2022/10/23 03:41:00;;;;;;;;;;;;;;;5.22;76.22;100260.38;5115305;27;1801;-77
2022/10/23 03:43:26;;;;;;;;;;;;;;;5.23;75.95;100256.72;5106845;28;1957;-77
2022/10/23 03:45:52;;;;;;;;;;;;;;;5.27;75.62;100269.69;5097224;28;976;-78
2022/10/23 03:48:18;;;;;;;;;;;;;;;5.32;75.95;100272.59;5114077;28;1972;-77
2022/10/23 03:50:45;;;;;;;;;;;;;;;5.20;75.79;100278.44;5091779;28;3644;-78
2022/10/23 03:53:11;;;;;;;;;;;;;;;5.29;75.89;100268.44;5096801;28;4029;-79
2022/10/23 03:55:37;;;;;;;;;;;;;;;5.32;75.66;100264.56;5115138;28;2683;-78
2022/10/23 03:58:03;;;;;;;;;;;;;;;5.41;75.37;100264.25;5114584;28;1251;-79
2022/10/23 04:00:30;;;;;;;;;;;;;;;5.38;75.56;100266.47;5092938;28;1439;-79
2022/10/23 04:02:56;;;;;;;;;;;;;;;5.48;75.14;100269.66;5071228;28;2205;-79
2022/10/23 04:05:22;;;;;;;;;;;;;;;5.45;75.33;100272.72;5089787;28;1744;-78
2022/10/23 04:07:48;;;;;;;;;;;;;;;5.33;75.70;100283.09;5089536;28;2641;-78
2022/10/23 04:10:15;;;;;;;;;;;;;;;5.42;75.78;100281.09;5073608;28;1953;-79
2022/10/23 04:12:41;;;;;;;;;;;;;;;5.37;75.65;100265.66;5074197;28;2316;-79
2022/10/23 04:15:07;;;;;;;;;;;;;;;5.38;75.63;100263.78;5089919;28;1558;-77
2022/10/23 04:17:34;;;;;;;;;;;;;;;5.39;76.01;100262.81;5079228;28;1504;-79
2022/10/23 04:20:00;;;;;;;;;;;;;;;5.42;75.33;100263.22;5089434;28;1814;-79
2022/10/23 04:22:26;;;;;;;;;;;;;;;5.36;75.78;100256.00;5092684;28;1635;-80
2022/10/23 04:24:53;;;;;;;;;;;;;;;5.34;75.74;100260.69;5070672;28;4687;-78
2022/10/23 04:27:19;;;;;;;;;;;;;;;5.33;75.82;100264.38;5091075;28;1525;-78
2022/10/23 04:29:45;;;;;;;;;;;;;;;5.40;75.79;100254.56;5089699;28;4445;-79
2022/10/23 04:32:11;;;;;;;;;;;;;;;5.34;75.89;100262.53;5075345;28;1853;-79
2022/10/23 04:34:38;;;;;;;;;;;;;;;5.41;75.73;100266.94;5099860;28;2051;-79
2022/10/23 04:37:04;;;;;;;;;;;;;;;5.37;75.81;100262.16;5092449;28;1445;-78
2022/10/23 04:39:30;;;;;;;;;;;;;;;5.43;75.60;100261.38;5103999;28;1670;-79
2022/10/23 04:41:57;;;;;;;;;;;;;;;5.42;75.49;100271.25;5092153;28;3740;-78
2022/10/23 04:44:23;;;;;;;;;;;;;;;5.41;75.72;100260.75;5073919;28;1666;-78
2022/10/23 04:46:49;;;;;;;;;;;;;;;5.39;75.74;100263.63;5095767;28;1755;-79
2022/10/23 04:49:15;;;;;;;;;;;;;;;5.44;75.76;100263.03;5092356;28;1910;-78
2022/10/23 04:51:42;;;;;;;;;;;;;;;5.45;75.49;100264.69;5088711;28;2047;-78
2022/10/23 04:54:08;;;;;;;;;;;;;;;5.39;75.87;100271.63;5076513;28;2654;-78
2022/10/23 04:56:34;;;;;;;;;;;;;;;5.38;76.00;100263.78;5092839;28;1617;-79
2022/10/23 04:59:00;;;;;;;;;;;;;;;5.38;75.90;100269.13;5091402;28;1594;-79
2022/10/23 05:01:27;;;;;;;;;;;;;;;5.43;76.01;100264.06;5071002;28;1655;-79
2022/10/23 05:03:55;;;;;;;;;;;;;;;5.38;75.94;100263.78;5077920;28;1765;-78
2022/10/23 05:06:21;;;;;;;;;;;;;;;5.45;75.75;100260.16;5094905;28;1674;-79
2022/10/23 05:08:48;;;;;;;;;;;;;;;5.50;75.46;100266.78;5090736;28;1973;-79
2022/10/23 05:11:14;;;;;;;;;;;;;;;5.55;75.31;100267.84;5086592;28;2032;-78
2022/10/23 05:13:40;;;;;;;;;;;;;;;5.45;75.81;100265.50;5095862;28;1613;-79
2022/10/23 05:16:06;;;;;;;;;;;;;;;5.39;75.99;100268.97;5089492;28;1709;-79
2022/10/23 05:18:33;;;;;;;;;;;;;;;4.93;75.85;100183.94;5078666;28;1839;-79
2022/10/23 05:20:59;;;;;;;;;;;;;;;5.44;75.75;100266.53;5094442;28;1711;-79
2022/10/23 05:23:25;;;;;;;;;;;;;;;5.39;75.80;100266.28;5094488;28;1617;-79
2022/10/23 05:25:51;;;;;;;;;;;;;;;5.41;75.75;100269.59;5090933;28;1479;-79
2022/10/23 05:28:18;;;;;;;;;;;;;;;5.43;75.84;100270.22;5088454;28;1836;-78
2022/10/23 05:30:44;;;;;;;;;;;;;;;5.52;75.66;100272.75;5091489;28;1976;-79
2022/10/23 05:33:11;;;;;;;;;;;;;;;4.84;76.15;100190.44;5089620;28;1593;-79
2022/10/23 05:35:37;;;;;;;;;;;;;;;5.43;76.02;100272.06;5088271;28;1555;-79
2022/10/23 05:38:03;;;;;;;;;;;;;;;5.35;76.36;100261.50;5094089;28;1681;-79
2022/10/23 05:40:29;;;;;;;;;;;;;;;5.38;76.17;100261.97;5090364;28;1936;-79
2022/10/23 05:42:56;;;;;;;;;;;;;;;5.47;76.03;100262.63;5092142;27;1759;-79
2022/10/23 05:45:22;;;;;;;;;;;;;;;5.54;75.67;100255.50;5094343;28;1485;-80
2022/10/23 05:47:49;;;;;;;;;;;;;;;5.42;76.08;100257.88;5094652;28;1930;-79
2022/10/23 05:50:15;;;;;;;;;;;;;;;5.39;76.20;100263.63;5091754;28;1910;-79
2022/10/23 05:52:41;;;;;;;;;;;;;;;5.46;76.18;100261.00;5091399;27;1572;-77
2022/10/23 05:55:07;;;;;;;;;;;;;;;5.49;75.78;100265.13;5095351;28;1746;-77
2022/10/23 05:57:34;;;;;;;;;;;;;;;5.45;75.93;100262.84;5090755;27;1905;-80
2022/10/23 06:00:01;;;;;;;;;;;;;;;5.03;75.97;100212.16;5094939;28;1524;-80
2022/10/23 06:02:27;;;;;;;;;;;;;;;5.37;76.36;100264.81;5074448;28;1920;-79
2022/10/23 06:04:53;;;;;;;;;;;;;;;5.43;76.38;100259.53;5095569;28;1660;-77
2022/10/23 06:07:19;;;;;;;;;;;;;;;5.51;75.68;100255.09;5096911;28;1882;-79
2022/10/23 06:09:46;;;;;;;;;;;;;;;5.45;75.83;100257.50;5095033;28;1918;-76
2022/10/23 06:12:12;;;;;;;;;;;;;;;5.41;76.12;100255.41;5091297;28;1643;-77
2022/10/23 06:14:38;;;;;;;;;;;;;;;5.51;75.83;100250.56;5091748;28;1614;-78
2022/10/23 06:17:05;;;;;;;;;;;;;;;5.57;75.73;100259.66;5104561;28;1925;-78
2022/10/23 06:19:31;;;;;;;;;;;;;;;5.45;76.03;100257.50;5110818;28;1652;-78
2022/10/23 06:21:57;;;;;;;;;;;;;;;5.51;75.66;100249.75;5090943;28;2938;-77
2022/10/23 06:24:23;;;;;;;;;;;;;;;5.36;76.47;100252.50;5099311;28;1892;-77
2022/10/23 06:26:50;;;;;;;;;;;;;;;5.40;76.21;100259.09;5114553;28;2690;-77
2022/10/23 06:29:16;;;;;;;;;;;;;;;5.40;76.16;100256.44;5098976;28;1898;-77
2022/10/23 06:31:42;;;;;;;;;;;;;;;5.55;75.67;100253.66;5114040;28;2042;-78
2022/10/23 06:34:08;;;;;;;;;;;;;;;5.48;75.74;100256.28;5108055;27;1827;-76
2022/10/23 06:36:36;;;;;;;;;;;;;;;5.44;76.19;100257.69;5099704;28;1622;-77
2022/10/23 06:39:03;;;;;;;;;;;;;;;5.38;76.41;100258.44;5104432;27;3142;-77
2022/10/23 06:41:29;;;;;;;;;;;;;;;5.52;75.91;100265.56;5108856;28;2024;-77
2022/10/23 06:43:55;;;;;;;;;;;;;;;5.47;75.86;100259.97;5098647;28;1224;-77
2022/10/23 06:46:22;;;;;;;;;;;;;;;5.39;76.21;100258.28;5098598;28;1439;-77
2022/10/23 06:48:48;;;;;;;;;;;;;;;5.44;76.25;100253.19;5110326;28;1941;-75
2022/10/23 06:51:15;;;;;;;;;;;;;;;5.44;76.12;100255.88;5080623;28;2040;-76
2022/10/23 06:53:41;;;;;;;;;;;;;;;5.47;76.08;100259.97;5089192;28;4634;-76
2022/10/23 06:56:08;;;;;;;;;;;;;;;5.40;76.39;100267.09;5121357;27;4228;-75
2022/10/23 06:58:34;;;;;;;;;;;;;;;5.50;75.97;100264.94;5116060;28;1831;-78
2022/10/23 07:01:00;;;;;;;;;;;;;;;5.37;76.36;100270.16;5117802;27;3507;-76
2022/10/23 07:03:27;;;;;;;;;;;;;;;5.46;76.34;100271.69;5104804;28;1552;-76
2022/10/23 07:05:53;;;;;;;;;;;;;;;5.40;76.45;100275.13;5094482;27;1664;-76
2022/10/23 07:08:20;;;;;;;;;;;;;;;5.43;76.17;100269.41;5074674;28;1910;-78
2022/10/23 07:10:47;;;;;;;;;;;;;;;5.40;76.48;100264.44;5115501;28;1981;-77
2022/10/23 07:13:13;;;;;;;;;;;;;;;5.37;76.47;100273.66;5116045;28;3897;-76
2022/10/23 07:15:40;;;;;;;;;;;;;;;5.44;76.35;100277.22;5094171;28;1937;-76
2022/10/23 07:18:06;;;;;;;;;;;;;;;5.42;76.28;100276.59;5110772;27;1818;-78
2022/10/23 07:20:36;;;;;;;;;;;;;;;5.46;76.18;100282.34;5092741;28;1397;-77
2022/10/23 07:23:02;;;;;;;;;;;;;;;5.50;76.03;100282.78;5108767;28;1257;-75
2022/10/23 07:25:28;;;;;;;;;;;;;;;5.38;76.50;100282.50;5102611;28;3369;-76
2022/10/23 07:27:55;;;;;;;;;;;;;;;5.32;76.73;100289.44;5064971;28;1581;-79
2022/10/23 07:30:21;;;;;;;;;;;;;;;5.33;76.62;100284.94;5076894;28;1910;-77
2022/10/23 07:32:48;;;;;;;;;;;;;;;5.34;76.74;100278.56;5053444;28;1456;-76
2022/10/23 07:35:14;;;;;;;;;;;;;;;5.30;76.82;100277.31;5056302;28;1733;-78
2022/10/23 07:37:40;;;;;;;;;;;;;;;5.35;76.51;100283.69;5068793;28;2029;-79
2022/10/23 07:40:07;;;;;;;;;;;;;;;5.35;76.66;100282.88;5075271;28;1808;-79
2022/10/23 07:42:33;;;;;;;;;;;;;;;5.32;76.68;100275.25;5075357;28;1550;-78
2022/10/23 07:44:59;;;;;;;;;;;;;;;5.31;77.00;100271.75;5073197;28;1819;-78
2022/10/23 07:47:26;;;;;;;;;;;;;;;5.37;76.57;100286.19;5087391;27;1937;-78
2022/10/23 07:49:52;;;;;;;;;;;;;;;5.34;76.79;100279.38;5074967;28;1905;-78
2022/10/23 07:52:19;;;;;;;;;;;;;;;5.30;77.08;100288.00;5071407;28;1839;-78
2022/10/23 07:54:45;;;;;;;;;;;;;;;5.36;76.68;100289.88;5057287;28;1578;-78
2022/10/23 07:57:12;;;;;;;;;;;;;;;5.37;76.61;100295.03;5071595;28;1985;-78
2022/10/23 07:59:38;;;;;;;;;;;;;;;5.39;76.79;100289.50;5070076;28;1493;-78
2022/10/23 08:02:05;;;;;;;;;;;;;;;5.33;76.81;100292.94;5057242;28;1702;-79
2022/10/23 08:04:32;;;;;;;;;;;;;;;5.34;76.73;100290.06;5071722;28;1526;-78
2022/10/23 08:06:59;;;;;;;;;;;;;;;5.34;76.76;100281.22;5053024;28;1876;-78
2022/10/23 08:09:26;;;;;;;;;;;;;;;5.40;76.30;100291.16;5056985;28;1956;-77
2022/10/23 08:11:52;;;;;;;;;;;;;;;5.34;76.74;100294.59;5071350;28;1846;-77
2022/10/23 08:14:19;;;;;;;;;;;;;;;5.39;76.52;100287.66;5074633;28;1596;-77
2022/10/23 08:16:45;;;;;;;;;;;;;;;5.31;76.82;100290.44;5081242;28;1978;-78
2022/10/23 08:19:12;;;;;;;;;;;;;;;5.41;76.67;100296.31;5070451;28;1468;-77
2022/10/23 08:21:38;;;;;;;;;;;;;;;5.43;76.48;100298.78;5074244;28;1670;-77
2022/10/23 08:24:05;;;;;;;;;;;;;;;5.37;76.65;100302.22;5092946;28;1855;-77
2022/10/23 08:26:31;;;;;;;;;;;;;;;5.41;76.61;100298.13;5090476;28;1934;-76
2022/10/23 08:28:57;;;;;;;;;;;;;;;5.36;76.74;100300.56;5091297;28;1596;-76
2022/10/23 08:31:24;;;;;;;;;;;;;;;5.34;76.87;100299.94;5067875;28;1906;-79
2022/10/23 08:33:50;;;;;;;;;;;;;;;5.29;77.13;100295.16;5093650;28;1471;-78
2022/10/23 08:36:16;;;;;;;;;;;;;;;5.30;76.97;100291.47;5087354;28;2034;-79
2022/10/23 08:38:42;;;;;;;;;;;;;;;5.26;77.12;100306.22;5089444;28;1919;-79
2022/10/23 08:41:09;;;;;;;;;;;;;;;5.30;77.04;100307.50;5088570;28;2173;-79
2022/10/23 08:43:35;;;;;;;;;;;;;;;5.30;77.04;100310.19;5092416;28;1458;-78
2022/10/23 08:46:01;;;;;;;;;;;;;;;5.31;77.02;100313.66;5087311;28;1741;-79
2022/10/23 08:48:27;;;;;;;;;;;;;;;5.30;77.05;100314.69;5091023;28;1958;-79
2022/10/23 08:50:54;;;;;;;;;;;;;;;5.27;77.19;100313.22;5087885;28;3347;-79
2022/10/23 08:53:20;;;;;;;;;;;;;;;5.30;76.91;100326.19;5093879;28;3396;-78
2022/10/23 08:55:46;;;;;;;;;;;;;;;5.26;77.24;100327.56;5091535;28;3479;-77
2022/10/23 08:58:14;;;;;;;;;;;;;;;5.28;77.08;100330.91;5089508;28;1907;-79
2022/10/23 09:00:40;;;;;;;;;;;;;;;5.28;76.97;100322.88;5089027;28;1919;-77
2022/10/23 09:03:07;;;;;;;;;;;;;;;5.28;77.07;100327.41;5092035;28;1442;-77
2022/10/23 09:05:33;;;;;;;;;;;;;;;5.30;76.81;100328.03;5090960;28;1870;-76
2022/10/23 09:07:59;;;;;;;;;;;;;;;5.30;76.99;100331.53;5071826;28;2478;-76
2022/10/23 09:10:25;;;;;;;;;;;;;;;5.28;77.14;100335.41;5092100;28;1968;-76
2022/10/23 09:12:52;;;;;;;;;;;;;;;5.29;77.16;100337.88;5096248;28;1701;-77
2022/10/23 09:15:18;;;;;;;;;;;;;;;5.26;77.13;100342.78;5093257;28;1668;-76
2022/10/23 09:17:44;;;;;;;;;;;;;;;5.29;77.10;100337.88;5078143;28;1991;-76
2022/10/23 09:20:11;;;;;;;;;;;;;;;5.29;77.13;100340.53;5095578;28;2024;-78
2022/10/23 09:22:37;;;;;;;;;;;;;;;5.30;77.24;100344.06;5094188;28;1610;-76
2022/10/23 09:25:03;;;;;;;;;;;;;;;5.29;77.11;100337.06;5072465;28;4427;-77
2022/10/23 09:27:29;;;;;;;;;;;;;;;5.29;77.11;100342.41;5094989;28;4343;-76
2022/10/23 09:29:57;;;;;;;;;;;;;;;5.29;77.18;100345.88;5093429;28;3572;-78
2022/10/23 09:32:23;;;;;;;;;;;;;;;5.28;77.21;100338.91;5093726;28;1396;-77
2022/10/23 09:34:49;;;;;;;;;;;;;;;5.30;77.21;100342.22;5112080;28;1752;-77
2022/10/23 09:37:16;;;;;;;;;;;;;;;5.28;77.36;100336.22;5115519;28;1558;-76
2022/10/23 09:39:42;;;;;;;;;;;;;;;5.28;77.13;100335.41;5112952;28;1925;-76
2022/10/23 09:42:08;;;;;;;;;;;;;;;5.27;77.14;100344.44;5113805;28;3633;-79
2022/10/23 09:44:34;;;;;;;;;;;;;;;5.23;77.34;100341.31;5112809;28;1475;-77
2022/10/23 09:47:01;;;;;;;;;;;;;;;5.29;77.07;100339.72;5110408;28;2029;-76
2022/10/23 09:49:27;;;;;;;;;;;;;;;5.29;77.15;100339.72;5112325;28;1893;-78
2022/10/23 09:51:53;;;;;;;;;;;;;;;5.29;77.21;100337.06;5116831;28;1894;-77
2022/10/23 09:54:22;;;;;;;;;;;;;;;5.31;77.27;100337.69;5114079;28;2715;-77
2022/10/23 09:56:48;;;;;;;;;;;;;;;5.27;77.36;100334.59;5090940;28;1931;-78
2022/10/23 09:59:15;;;;;;;;;;;;;;;5.27;77.45;100341.78;5102619;28;1909;-77
2022/10/23 10:01:41;;;;;;;;;;;;;;;5.25;77.26;100336.63;5100454;28;1930;-77
2022/10/23 10:04:07;;;;;;;;;;;;;;;5.28;77.25;100338.09;5105355;28;1929;-78
2022/10/23 10:06:34;;;;;;;;;;;;;;;5.26;77.60;100338.25;5095397;28;1920;-77
2022/10/23 10:09:00;;;;;;;;;;;;;;;5.30;77.17;100338.72;5107016;28;1426;-78
2022/10/23 10:11:27;;;;;;;;;;;;;;;5.27;77.27;100337.25;5116274;28;1914;-78
2022/10/23 10:13:54;;;;;;;;;;;;;;;5.27;77.31;100339.09;5102442;28;2048;-78
2022/10/23 10:16:20;;;;;;;;;;;;;;;5.28;77.22;100335.41;5098934;28;1679;-78
2022/10/23 10:18:47;;;;;;;;;;;;;;;5.27;77.20;100339.09;5117363;28;1150;-78
2022/10/23 10:21:14;;;;;;;;;;;;;;;5.27;77.32;100339.94;5117799;28;1186;-77
2022/10/23 10:23:40;;;;;;;;;;;;;;;5.30;77.02;100336.88;5158106;22;3712;-78
2022/10/23 10:26:07;;;;;;;;;;;;;;;5.30;77.32;100336.88;5114077;28;1206;-77
2022/10/23 10:28:33;;;;;;;;;;;;;;;5.26;77.43;100338.25;5096799;28;1210;-76
2022/10/23 10:30:59;;;;;;;;;;;;;;;5.26;77.45;100348.94;5081827;28;1977;-77
2022/10/23 10:33:25;;;;;;;;;;;;;;;5.28;77.12;100338.91;5090167;28;1652;-77
2022/10/23 10:35:52;;;;;;;;;;;;;;;5.30;77.41;100346.75;5094606;28;1610;-77
2022/10/23 10:38:18;;;;;;;;;;;;;;;5.24;77.53;100342.97;5109744;28;1340;-76
2022/10/23 10:40:44;;;;;;;;;;;;;;;5.31;76.98;100341.19;5101899;28;1403;-78
2022/10/23 10:43:11;;;;;;;;;;;;;;;5.29;77.13;100335.22;5103803;28;1847;-78
2022/10/23 10:45:37;;;;;;;;;;;;;;;5.29;77.31;100340.53;5091462;28;2107;-77
2022/10/23 10:48:03;;;;;;;;;;;;;;;5.27;77.49;100347.13;5079101;28;2277;-76
2022/10/23 10:50:29;;;;;;;;;;;;;;;5.31;77.23;100345.72;5082426;28;2461;-76
2022/10/23 10:52:56;;;;;;;;;;;;;;;5.29;77.34;100337.88;5076327;28;1542;-76
2022/10/23 10:55:22;;;;;;;;;;;;;;;5.30;77.22;100342.22;5102543;28;1609;-78
2022/10/23 10:57:48;;;;;;;;;;;;;;;5.28;77.26;100338.91;5103501;28;1724;-77
2022/10/23 11:00:15;;;;;;;;;;;;;;;5.25;77.41;100344.63;5096082;28;2074;-78
2022/10/23 11:02:41;;;;;;;;;;;;;;;5.26;77.39;100348.94;5095466;28;1760;-78
2022/10/23 11:05:07;;;;;;;;;;;;;;;5.28;77.36;100348.75;5095038;28;2225;-77
2022/10/23 11:07:33;;;;;;;;;;;;;;;5.33;77.13;100344.50;5100279;28;1569;-78
2022/10/23 11:10:00;;;;;;;;;;;;;;;5.32;77.38;100342.00;5113264;28;1181;-79
2022/10/23 11:12:26;;;;;;;;;;;;;;;5.31;77.40;100345.72;5083067;28;1909;-78
2022/10/23 11:14:52;;;;;;;;;;;;;;;5.28;77.52;100346.91;5091731;28;1698;-78
2022/10/23 11:17:18;;;;;;;;;;;;;;;5.33;77.38;100346.34;5073323;28;2436;-78
2022/10/23 11:19:45;;;;;;;;;;;;;;;5.33;77.18;100347.19;5091780;28;2365;-78
2022/10/23 11:22:11;;;;;;;;;;;;;;;5.31;77.41;100340.38;5098555;28;3310;-77
2022/10/23 11:24:38;;;;;;;;;;;;;;;5.28;77.30;100346.91;5112383;28;1302;-78
2022/10/23 11:27:04;;;;;;;;;;;;;;;5.27;77.72;100347.94;5095519;28;3353;-79
2022/10/23 11:29:30;;;;;;;;;;;;;;;5.27;77.39;100344.44;5095825;28;1955;-79
2022/10/23 11:31:57;;;;;;;;;;;;;;;5.32;77.33;100344.69;5093620;28;1910;-78
2022/10/23 11:34:23;;;;;;;;;;;;;;;5.27;77.44;100337.25;5077448;28;1856;-79
2022/10/23 11:36:49;;;;;;;;;;;;;;;5.29;77.37;100337.06;5091569;28;1982;-79
2022/10/23 11:39:15;;;;;;;;;;;;;;;5.31;77.31;100335.03;5097995;28;2890;-79
2022/10/23 11:41:43;;;;;;;;;;;;;;;5.30;77.49;100333.38;5078689;28;1462;-76
2022/10/23 11:44:09;;;;;;;;;;;;;;;5.30;77.47;100330.72;5096509;28;1272;-77
2022/10/23 11:46:35;;;;;;;;;;;;;;;5.29;77.39;100321.84;5094431;28;2073;-78
2022/10/23 11:49:03;;;;;;;;;;;;;;;5.29;77.57;100321.84;5097757;28;1722;-77
2022/10/23 11:51:30;;;;;;;;;;;;;;;5.35;77.34;100313.06;5094459;28;1910;-77
2022/10/23 11:53:56;;;;;;;;;;;;;;;5.32;77.32;100310.78;5086150;28;4379;-78
2022/10/23 11:56:22;;;;;;;;;;;;;;;5.39;77.13;100309.03;5091275;28;3350;-79
2022/10/23 11:58:48;;;;;;;;;;;;;;;5.38;77.14;100317.22;5098239;28;1626;-80
2022/10/23 12:01:15;;;;;;;;;;;;;;;5.38;77.03;100317.22;5094367;28;2077;-79
2022/10/23 12:03:41;;;;;;;;;;;;;;;5.32;77.38;100321.47;5109522;28;1194;-78
2022/10/23 12:06:07;;;;;;;;;;;;;;;5.31;77.57;100311.81;5067559;28;1908;-78
2022/10/23 12:08:33;;;;;;;;;;;;;;;5.33;77.39;100315.13;5075951;28;1504;-78
2022/10/23 12:11:00;;;;;;;;;;;;;;;5.30;77.52;100318.19;5093706;28;1977;-78
2022/10/23 12:13:26;;;;;;;;;;;;;;;5.31;77.49;100327.03;5077186;28;3405;-77
2022/10/23 12:15:52;;;;;;;;;;;;;;;5.31;77.54;100319.81;5087658;28;1974;-78
2022/10/23 12:18:19;;;;;;;;;;;;;;;5.30;77.56;100315.50;5094873;28;1275;-78
2022/10/23 12:20:45;;;;;;;;;;;;;;;5.32;77.67;100312.63;5098805;28;1815;-79
2022/10/23 12:23:11;;;;;;;;;;;;;;;5.32;77.41;100313.47;5085581;28;1558;-77
2022/10/23 12:25:38;;;;;;;;;;;;;;;5.33;77.37;100308.97;5094635;28;3062;-77
2022/10/23 12:28:04;;;;;;;;;;;;;;;5.35;77.55;100312.25;5095608;28;1040;-78
2022/10/23 12:30:30;;;;;;;;;;;;;;;5.31;77.62;100317.16;5096752;28;1988;-79
2022/10/23 12:32:57;;;;;;;;;;;;;;;5.31;77.50;100308.31;5080311;28;1830;-78
2022/10/23 12:35:23;;;;;;;;;;;;;;;5.31;77.61;100308.31;5066693;28;1963;-79
2022/10/23 12:37:50;;;;;;;;;;;;;;;5.32;77.41;100312.63;5064184;28;2103;-78
2022/10/23 12:40:16;;;;;;;;;;;;;;;5.32;77.49;100326.00;5065181;28;1823;-77
2022/10/23 12:42:42;;;;;;;;;;;;;;;5.40;77.28;100325.88;5071543;28;3624;-78
2022/10/23 12:45:09;;;;;;;;;;;;;;;5.34;77.51;100329.31;5062213;28;3364;-77
2022/10/23 12:47:35;;;;;;;;;;;;;;;5.35;77.31;100325.59;5069835;28;1534;-79
2022/10/23 12:50:02;;;;;;;;;;;;;;;5.37;77.15;100329.75;5082567;28;1787;-77
2022/10/23 12:52:28;;;;;;;;;;;;;;;5.46;76.69;100319.75;5077675;28;1922;-79